createdAt,value
2018-05-12T00:00:04.464Z,98643.03
2018-05-12T00:02:32.047Z,98640.92
2018-05-12T00:04:59.799Z,98636.52
2018-05-12T00:07:27.371Z,98644.77
2018-05-12T00:09:54.947Z,98642.38
2018-05-12T00:12:22.700Z,98640.17
2018-05-12T00:14:50.296Z,98641.72
2018-05-12T00:17:17.873Z,98642.03
2018-05-12T00:19:45.495Z,98638.80
2018-05-12T00:22:13.063Z,98646.95
2018-05-12T00:24:40.631Z,98647.38
2018-05-12T00:27:08.264Z,98650.09
2018-05-12T00:29:35.895Z,98656.24
2018-05-12T00:32:03.485Z,98660.55
2018-05-12T00:34:31.211Z,98663.34
2018-05-12T00:36:58.974Z,98662.11
2018-05-12T00:39:26.543Z,98670.13
2018-05-12T00:41:54.188Z,98673.52
2018-05-12T00:44:21.780Z,98672.92
2018-05-12T00:46:49.383Z,98672.05
2018-05-12T00:49:17.022Z,98670.76
2018-05-12T00:51:44.635Z,98669.39
2018-05-12T00:54:12.218Z,98674.34
2018-05-12T00:56:39.979Z,98668.33
2018-05-12T00:59:07.554Z,98666.91
2018-05-12T01:01:35.175Z,98667.93
2018-05-12T01:04:02.832Z,98673.48
2018-05-12T01:06:30.421Z,98673.66
2018-05-12T01:08:57.995Z,98666.87
2018-05-12T01:11:25.740Z,98662.32
2018-05-12T01:13:53.360Z,98664.63
2018-05-12T01:16:20.952Z,98669.69
2018-05-12T01:18:48.593Z,98662.50
2018-05-12T01:21:16.196Z,98663.42
2018-05-12T01:23:43.765Z,98663.06
2018-05-12T01:26:11.403Z,98666.31
2018-05-12T01:28:39.435Z,98662.52
2018-05-12T01:31:07.089Z,98657.52
2018-05-12T01:33:36.854Z,98665.14
2018-05-12T01:36:04.491Z,98662.19
2018-05-12T01:38:32.085Z,98658.60
2018-05-12T01:41:00.688Z,98653.00
2018-05-12T01:43:28.872Z,98652.83
2018-05-12T01:45:56.434Z,98653.88
2018-05-12T01:48:24.162Z,98662.55
2018-05-12T01:50:51.740Z,98661.11
2018-05-12T01:53:19.308Z,98655.78
2018-05-12T01:55:46.954Z,98656.87
2018-05-12T01:58:14.552Z,98657.23
2018-05-12T02:00:42.132Z,98652.95
2018-05-12T02:03:09.883Z,98654.55
2018-05-12T02:05:37.471Z,98655.19
2018-05-12T02:08:05.056Z,98657.77
2018-05-12T02:10:32.704Z,98654.64
2018-05-12T02:13:00.288Z,98658.59
2018-05-12T02:15:27.895Z,98654.09
2018-05-12T02:17:55.631Z,98654.70
2018-05-12T02:20:23.195Z,98664.96
2018-05-12T02:22:50.763Z,98668.69
2018-05-12T02:25:18.489Z,98661.50
2018-05-12T02:27:46.093Z,98655.57
2018-05-12T02:30:13.680Z,98658.94
2018-05-12T02:32:41.313Z,98660.01
2018-05-12T02:35:08.898Z,98667.77
2018-05-12T02:37:36.526Z,98667.82
2018-05-12T02:40:04.300Z,98669.42
2018-05-12T02:42:31.899Z,98676.33
2018-05-12T02:44:59.486Z,98669.30
2018-05-12T02:47:27.146Z,98682.92
2018-05-12T02:49:54.715Z,98673.67
2018-05-12T02:52:22.296Z,98675.37
2018-05-12T02:54:49.935Z,98673.86
2018-05-12T02:57:17.512Z,98673.44
2018-05-12T02:59:45.096Z,98675.66
2018-05-12T03:02:12.733Z,98684.28
2018-05-12T03:04:40.333Z,98675.35
2018-05-12T03:07:07.925Z,98684.41
2018-05-12T03:09:35.663Z,98680.44
2018-05-12T03:12:03.267Z,98685.18
2018-05-12T03:14:30.871Z,98687.63
2018-05-12T03:16:58.611Z,98683.34
2018-05-12T03:19:26.182Z,98693.69
2018-05-12T03:21:53.786Z,98694.48
2018-05-12T03:24:21.548Z,98698.04
2018-05-12T03:26:49.149Z,98700.46
2018-05-12T03:29:16.767Z,98693.86
2018-05-12T03:31:44.413Z,98693.58
2018-05-12T03:34:12.029Z,98694.83
2018-05-12T03:36:39.605Z,98694.54
2018-05-12T03:39:07.853Z,98699.30
2018-05-12T03:41:35.438Z,98703.78
2018-05-12T03:44:03.074Z,98699.80
2018-05-12T03:46:30.698Z,98701.61
2018-05-12T03:48:58.800Z,98700.45
2018-05-12T03:51:26.384Z,98703.45
2018-05-12T03:53:54.031Z,98709.44
2018-05-12T03:56:21.613Z,98708.06
2018-05-12T03:58:49.203Z,98702.03
2018-05-12T04:01:16.991Z,98699.86
2018-05-12T04:03:44.573Z,98695.38
2018-05-12T04:06:26.211Z,98690.59
2018-05-12T04:09:05.886Z,98694.29
2018-05-12T04:11:45.366Z,98698.98
2018-05-12T04:14:12.980Z,98696.77
2018-05-12T04:16:40.586Z,98698.14
2018-05-12T04:19:08.219Z,98696.19
2018-05-12T04:21:35.833Z,98701.14
2018-05-12T04:24:03.438Z,98700.32
2018-05-12T04:26:31.114Z,98704.52
2018-05-12T04:28:58.695Z,98709.81
2018-05-12T04:31:26.290Z,98710.69
2018-05-12T04:33:53.961Z,98707.83
2018-05-12T04:36:21.568Z,98716.92
2018-05-12T04:38:49.162Z,98716.94
2018-05-12T04:41:16.814Z,98711.33
2018-05-12T04:43:44.406Z,98714.84
2018-05-12T04:46:11.996Z,98718.02
2018-05-12T04:48:39.649Z,98712.17
2018-05-12T04:51:07.270Z,98708.54
2018-05-12T04:53:34.855Z,98709.91
2018-05-12T04:56:02.483Z,98714.97
2018-05-12T04:58:30.106Z,98712.30
2018-05-12T05:00:57.670Z,98716.22
2018-05-12T05:03:26.676Z,98712.53
2018-05-12T05:05:54.267Z,98712.55
2018-05-12T05:08:21.858Z,98715.45
2018-05-12T05:10:49.484Z,98717.72
2018-05-12T05:13:17.048Z,98718.25
2018-05-12T05:15:44.656Z,98720.66
2018-05-12T05:18:12.434Z,98715.17
2018-05-12T05:20:39.998Z,98715.66
2018-05-12T05:23:07.575Z,98724.51
2018-05-12T05:25:35.242Z,98725.42
2018-05-12T05:28:02.817Z,98731.27
2018-05-12T05:30:30.429Z,98733.73
2018-05-12T05:32:58.063Z,98735.09
2018-05-12T05:35:25.648Z,98727.63
2018-05-12T05:37:53.244Z,98735.29
2018-05-12T05:40:20.994Z,98741.99
2018-05-12T05:42:48.637Z,98738.82
2018-05-12T05:45:16.257Z,98736.77
2018-05-12T05:47:43.988Z,98736.91
2018-05-12T05:50:11.591Z,98739.06
2018-05-12T05:52:39.189Z,98741.86
2018-05-12T05:55:06.798Z,98745.23
2018-05-12T05:57:34.394Z,98732.33
2018-05-12T06:00:02.011Z,98740.05
2018-05-12T06:02:29.665Z,98734.58
2018-05-12T06:04:57.274Z,98730.84
2018-05-12T06:07:24.847Z,98733.45
2018-05-12T06:09:52.556Z,98735.28
2018-05-12T06:12:20.154Z,98730.70
2018-05-12T06:14:47.731Z,98737.28
2018-05-12T06:17:15.451Z,98724.86
2018-05-12T06:19:43.053Z,98726.44
2018-05-12T06:22:11.366Z,98716.23
2018-05-12T06:24:39.036Z,98725.06
2018-05-12T06:27:06.605Z,98725.18
2018-05-12T06:29:34.196Z,98723.13
2018-05-12T06:32:01.848Z,98731.22
2018-05-12T06:34:29.434Z,98725.70
2018-05-12T06:36:57.047Z,98722.83
2018-05-12T06:39:24.726Z,98714.79
2018-05-12T06:41:52.318Z,98715.92
2018-05-12T06:44:19.909Z,98716.77
2018-05-12T06:46:47.645Z,98722.25
2018-05-12T06:49:15.252Z,98722.50
2018-05-12T06:51:43.764Z,98727.05
2018-05-12T06:54:11.392Z,98724.45
2018-05-12T06:56:38.978Z,98731.41
2018-05-12T06:59:06.593Z,98725.66
2018-05-12T07:01:34.227Z,98714.92
2018-05-12T07:04:01.815Z,98714.52
2018-05-12T07:06:29.406Z,98721.83
2018-05-12T07:08:57.047Z,98724.38
2018-05-12T07:11:24.695Z,98722.59
2018-05-12T07:13:52.276Z,98713.78
2018-05-12T07:16:20.029Z,98714.10
2018-05-12T07:18:47.665Z,98713.56
2018-05-12T07:21:16.076Z,98714.37
2018-05-12T07:23:43.774Z,98715.95
2018-05-12T07:26:11.376Z,98711.72
2018-05-12T07:28:38.992Z,98706.84
2018-05-12T07:31:06.801Z,98706.87
2018-05-12T07:33:34.404Z,98711.49
2018-05-12T07:36:02.064Z,98704.75
2018-05-12T07:38:30.231Z,98704.73
2018-05-12T07:40:57.811Z,98710.02
2018-05-12T07:43:25.457Z,98701.61
2018-05-12T07:45:53.120Z,98702.66
2018-05-12T07:48:20.779Z,98702.61
2018-05-12T07:50:48.396Z,98706.45
2018-05-12T07:53:16.097Z,98695.89
2018-05-12T07:55:43.745Z,98694.79
2018-05-12T07:58:11.377Z,98695.65
2018-05-12T08:00:39.032Z,98690.58
2018-05-12T08:03:06.612Z,98689.82
2018-05-12T08:05:34.188Z,98699.37
2018-05-12T08:08:01.976Z,98697.86
2018-05-12T08:10:29.600Z,98696.83
2018-05-12T08:12:57.177Z,98699.80
2018-05-12T08:15:25.692Z,98692.78
2018-05-12T08:17:53.328Z,98695.09
2018-05-12T08:20:20.968Z,98689.87
2018-05-12T08:22:48.692Z,98692.91
2018-05-12T08:25:16.279Z,98682.08
2018-05-12T08:27:43.957Z,98689.86
2018-05-12T08:30:11.596Z,98682.89
2018-05-12T08:32:39.179Z,98682.84
2018-05-12T08:35:06.782Z,98681.27
2018-05-12T08:37:34.550Z,98676.49
2018-05-12T08:40:02.180Z,98675.35
2018-05-12T08:42:29.757Z,98671.33
2018-05-12T08:44:57.471Z,98670.55
2018-05-12T08:47:25.079Z,98671.09
2018-05-12T08:49:52.678Z,98681.78
2018-05-12T08:52:20.379Z,98670.73
2018-05-12T08:54:48.019Z,98677.48
2018-05-12T08:57:15.652Z,98671.33
2018-05-12T08:59:43.316Z,98667.86
2018-05-12T09:02:10.940Z,98674.34
2018-05-12T09:04:38.531Z,98669.26
2018-05-12T09:07:06.205Z,98665.20
2018-05-12T09:09:33.841Z,98667.20
2018-05-12T09:12:01.483Z,98663.97
2018-05-12T09:14:29.208Z,98663.83
2018-05-12T09:16:56.792Z,98660.20
2018-05-12T09:19:24.586Z,98654.00
2018-05-12T09:21:52.920Z,98654.69
2018-05-12T09:24:20.567Z,98655.75
2018-05-12T09:26:48.151Z,98653.81
2018-05-12T09:29:15.836Z,98651.41
2018-05-12T09:31:43.420Z,98654.17
2018-05-12T09:34:10.994Z,98648.53
2018-05-12T09:36:38.628Z,98650.72
2018-05-12T09:39:07.116Z,98643.72
2018-05-12T09:41:34.777Z,98646.78
2018-05-12T09:44:02.611Z,98643.53
2018-05-12T09:46:30.176Z,98637.02
2018-05-12T09:48:57.891Z,98638.98
2018-05-12T09:51:25.532Z,98631.55
2018-05-12T09:53:53.119Z,98627.85
2018-05-12T09:56:20.764Z,98621.66
2018-05-12T09:58:48.395Z,98616.27
2018-05-12T10:01:15.982Z,98622.55
2018-05-12T10:03:43.585Z,98608.30
2018-05-12T10:06:11.317Z,98612.45
2018-05-12T10:08:38.908Z,98609.38
2018-05-12T10:11:06.503Z,98603.21
2018-05-12T10:13:34.131Z,98605.99
2018-05-12T10:16:01.773Z,98599.43
2018-05-12T10:18:29.349Z,98600.69
2018-05-12T10:20:56.980Z,98597.68
2018-05-12T10:23:24.643Z,98595.48
2018-05-12T10:25:52.477Z,98602.48
2018-05-12T10:28:20.398Z,98598.13
2018-05-12T10:30:48.253Z,98589.55
2018-05-12T10:33:16.103Z,98598.93
2018-05-12T10:35:43.975Z,98597.63
2018-05-12T10:38:11.834Z,98584.59
2018-05-12T10:40:39.664Z,98583.02
2018-05-12T10:43:07.655Z,98581.34
2018-05-12T10:45:35.515Z,98573.67
2018-05-12T10:48:03.363Z,98576.34
2018-05-12T10:50:34.296Z,98567.69
2018-05-12T10:53:02.142Z,98564.70
2018-05-12T10:55:29.719Z,98564.85
2018-05-12T10:57:57.459Z,98574.08
2018-05-12T11:00:25.084Z,98567.56
2018-05-12T11:02:52.655Z,98574.06
2018-05-12T11:05:20.369Z,98565.97
2018-05-12T11:07:47.973Z,98564.62
2018-05-12T11:10:15.559Z,98562.53
2018-05-12T11:12:45.278Z,98564.78
2018-05-12T11:15:12.856Z,98558.15
2018-05-12T11:17:40.429Z,98559.27
2018-05-12T11:20:08.126Z,98546.77
2018-05-12T11:22:35.677Z,98555.38
2018-05-12T11:25:03.318Z,98556.76
2018-05-12T11:27:31.049Z,98555.56
2018-05-12T11:29:58.627Z,98554.84
2018-05-12T11:32:26.197Z,98550.22
2018-05-12T11:34:53.859Z,98545.52
2018-05-12T11:37:21.428Z,98544.44
2018-05-12T11:39:49.008Z,98542.81
2018-05-12T11:42:17.035Z,98532.65
2018-05-12T11:44:44.696Z,98533.52
2018-05-12T11:47:12.236Z,98531.78
2018-05-12T11:49:39.871Z,98530.23
2018-05-12T11:52:07.468Z,98524.64
2018-05-12T11:54:35.072Z,98527.30
2018-05-12T11:57:02.728Z,98520.15
2018-05-12T11:59:30.302Z,98522.66
2018-05-12T12:01:57.909Z,98517.06
2018-05-12T12:04:25.529Z,98512.88
2018-05-12T12:06:53.145Z,98518.03
2018-05-12T12:09:20.718Z,98499.24
2018-05-12T12:11:48.362Z,98505.05
2018-05-12T12:14:15.918Z,98490.53
2018-05-12T12:16:43.554Z,98490.56
2018-05-12T12:19:11.274Z,98484.20
2018-05-12T12:21:38.873Z,98478.23
2018-05-12T12:24:06.491Z,98476.30
2018-05-12T12:26:34.104Z,98476.20
2018-05-12T12:29:01.669Z,98470.41
2018-05-12T12:31:29.237Z,98466.36
2018-05-12T12:33:56.844Z,98468.11
2018-05-12T12:36:24.424Z,98465.04
2018-05-12T12:38:52.057Z,98457.47
2018-05-12T12:41:19.913Z,98456.29
2018-05-12T12:43:47.484Z,98450.45
2018-05-12T12:46:15.313Z,98449.05
2018-05-12T12:48:42.963Z,98452.05
2018-05-12T12:51:10.649Z,98442.72
2018-05-12T12:53:39.244Z,98438.25
2018-05-12T12:56:06.979Z,98438.17
2018-05-12T12:58:34.570Z,98441.46
2018-05-12T13:01:02.154Z,98426.85
2018-05-12T13:03:29.801Z,98428.09
2018-05-12T13:05:57.422Z,98429.33
2018-05-12T13:08:25.033Z,98424.95
2018-05-12T13:10:52.681Z,98424.63
2018-05-12T13:13:20.278Z,98426.04
2018-05-12T13:15:47.906Z,98420.41
2018-05-12T13:18:15.537Z,98418.36
2018-05-12T13:20:43.147Z,98411.98
2018-05-12T13:23:10.732Z,98412.70
2018-05-12T13:25:38.342Z,98406.91
2018-05-12T13:28:05.940Z,98405.85
2018-05-12T13:30:33.524Z,98407.20
2018-05-12T13:33:01.233Z,98406.03
2018-05-12T13:35:28.818Z,98401.26
2018-05-12T13:37:56.436Z,98406.23
2018-05-12T13:40:24.263Z,98404.91
2018-05-12T13:42:51.896Z,98392.89
2018-05-12T13:45:19.469Z,98391.70
2018-05-12T13:47:47.100Z,98388.83
2018-05-12T13:50:14.697Z,98388.68
2018-05-12T13:52:42.275Z,98384.89
2018-05-12T13:55:09.981Z,98381.91
2018-05-12T13:57:37.592Z,98384.22
2018-05-12T14:00:05.251Z,98380.19
2018-05-12T14:02:32.879Z,98377.55
2018-05-12T14:05:00.478Z,98379.16
2018-05-12T14:07:28.070Z,98370.07
2018-05-12T14:09:55.815Z,98374.38
2018-05-12T14:12:23.386Z,98369.34
2018-05-12T14:14:50.971Z,98370.47
2018-05-12T14:17:18.769Z,98371.02
2018-05-12T14:19:46.387Z,98361.81
2018-05-12T14:22:13.980Z,98365.78
2018-05-12T14:24:41.618Z,98364.28
2018-05-12T14:27:11.956Z,98372.53
2018-05-12T14:29:39.547Z,98371.92
2018-05-12T14:32:07.303Z,98366.23
2018-05-12T14:34:34.881Z,98367.98
2018-05-12T14:37:02.472Z,98364.88
2018-05-12T14:39:30.134Z,98366.66
2018-05-12T14:41:57.738Z,98363.36
2018-05-12T14:44:25.319Z,98363.27
2018-05-12T14:46:52.972Z,98362.46
2018-05-12T14:49:20.580Z,98361.17
2018-05-12T14:51:48.187Z,98361.34
2018-05-12T14:54:15.912Z,98362.48
2018-05-12T14:56:43.547Z,98360.38
2018-05-12T14:59:11.159Z,98368.64
2018-05-12T15:01:38.795Z,98359.11
2018-05-12T15:04:06.384Z,98363.54
2018-05-12T15:06:33.985Z,98354.44
2018-05-12T15:09:01.612Z,98354.47
2018-05-12T15:11:29.223Z,98353.80
2018-05-12T15:13:56.828Z,98358.94
2018-05-12T15:16:24.580Z,98355.17
2018-05-12T15:18:52.149Z,98344.56
2018-05-12T15:21:19.751Z,98359.15
2018-05-12T15:23:47.394Z,98352.56
2018-05-12T15:26:15.004Z,98351.62
2018-05-12T15:28:42.574Z,98348.32
2018-05-12T15:31:10.194Z,98351.97
2018-05-12T15:33:37.779Z,98352.70
2018-05-12T15:36:05.392Z,98355.20
2018-05-12T15:38:33.026Z,98352.24
2018-05-12T15:41:00.611Z,98349.30
2018-05-12T15:43:28.195Z,98357.91
2018-05-12T15:45:55.836Z,98357.13
2018-05-12T15:48:23.423Z,98356.94
2018-05-12T15:50:51.031Z,98355.61
2018-05-12T15:53:18.779Z,98350.44
2018-05-12T15:55:46.368Z,98358.27
2018-05-12T15:58:13.999Z,98358.85
2018-05-12T16:00:41.775Z,98364.02
2018-05-12T16:03:09.450Z,98359.34
2018-05-12T16:05:36.995Z,98363.48
2018-05-12T16:08:04.644Z,98371.63
2018-05-12T16:10:32.229Z,98370.97
2018-05-12T16:12:59.807Z,98371.81
2018-05-12T16:15:27.454Z,98375.44
2018-05-12T16:17:55.043Z,98384.72
2018-05-12T16:20:22.670Z,98377.52
2018-05-12T16:22:50.343Z,98373.73
2018-05-12T16:25:17.967Z,98376.14
2018-05-12T16:27:45.578Z,98373.80
2018-05-12T16:30:13.475Z,98376.76
2018-05-12T16:32:41.074Z,98375.86
2018-05-12T16:35:08.684Z,98378.75
2018-05-12T16:37:36.451Z,98385.23
2018-05-12T16:40:04.123Z,98388.95
2018-05-12T16:42:31.787Z,98397.83
2018-05-12T16:44:59.516Z,98397.75
2018-05-12T16:47:27.187Z,98401.06
2018-05-12T16:49:54.788Z,98405.39
2018-05-12T16:52:22.410Z,98407.17
2018-05-12T16:54:49.994Z,98405.27
2018-05-12T16:57:17.602Z,98411.26
2018-05-12T16:59:45.350Z,98402.97
2018-05-12T17:02:12.941Z,98409.34
2018-05-12T17:04:40.530Z,98410.38
2018-05-12T17:07:08.214Z,98411.78
2018-05-12T17:09:35.830Z,98412.40
2018-05-12T17:12:03.416Z,98413.32
2018-05-12T17:14:31.208Z,98416.30
2018-05-12T17:16:58.775Z,98412.48
2018-05-12T17:19:26.339Z,98413.86
2018-05-12T17:21:53.989Z,98417.64
2018-05-12T17:24:21.721Z,98418.94
2018-05-12T17:26:49.417Z,98413.92
2018-05-12T17:29:17.103Z,98425.55
2018-05-12T17:31:44.811Z,98423.22
2018-05-12T17:34:12.546Z,98432.94
2018-05-12T17:36:40.274Z,98437.73
2018-05-12T17:39:07.881Z,98437.78
2018-05-12T17:41:35.475Z,98437.53
2018-05-12T17:44:03.160Z,98438.11
2018-05-12T17:46:30.734Z,98445.12
2018-05-12T17:48:58.334Z,98453.99
2018-05-12T17:51:26.330Z,98455.29
2018-05-12T17:53:53.899Z,98457.04
2018-05-12T17:56:21.475Z,98463.96
2018-05-12T17:58:49.129Z,98453.27
2018-05-12T18:01:25.314Z,98455.61
2018-05-12T18:03:52.965Z,98461.34
2018-05-12T18:06:20.541Z,98479.48
2018-05-12T18:08:48.143Z,98487.11
2018-05-12T18:11:15.807Z,98498.69
2018-05-12T18:13:43.416Z,98503.38
2018-05-12T18:16:11.064Z,98507.11
2018-05-12T18:18:38.817Z,98502.82
2018-05-12T18:21:07.432Z,98504.72
2018-05-12T18:23:35.026Z,98500.78
2018-05-12T18:26:02.779Z,98499.20
2018-05-12T18:28:30.377Z,98504.88
2018-05-12T18:30:58.006Z,98513.36
2018-05-12T18:33:25.658Z,98510.02
2018-05-12T18:35:53.241Z,98512.73
2018-05-12T18:38:20.860Z,98515.52
2018-05-12T18:40:48.534Z,98513.89
2018-05-12T18:43:16.176Z,98511.59
2018-05-12T18:45:43.785Z,98515.53
2018-05-12T18:48:11.555Z,98513.80
2018-05-12T18:50:39.149Z,98506.81
2018-05-12T18:53:06.803Z,98514.34
2018-05-12T18:55:34.535Z,98514.32
2018-05-12T18:58:02.270Z,98514.70
2018-05-12T19:00:30.036Z,98512.12
2018-05-12T19:02:58.404Z,98518.52
2018-05-12T19:05:26.010Z,98521.23
2018-05-12T19:07:53.610Z,98531.09
2018-05-12T19:10:21.396Z,98523.31
2018-05-12T19:12:48.984Z,98529.52
2018-05-12T19:15:16.639Z,98533.08
2018-05-12T19:17:44.282Z,98540.11
2018-05-12T19:20:11.865Z,98545.05
2018-05-12T19:22:39.526Z,98537.22
2018-05-12T19:25:07.218Z,98542.50
2018-05-12T19:27:34.976Z,98547.16
2018-05-12T19:30:02.672Z,98550.89
2018-05-12T19:32:30.535Z,98551.48
2018-05-12T19:34:58.232Z,98557.11
2018-05-12T19:37:25.958Z,98552.70
2018-05-12T19:39:53.987Z,98549.82
2018-05-12T19:42:21.959Z,98549.30
2018-05-12T19:44:50.578Z,98550.93
2018-05-12T19:47:18.557Z,98557.56
2018-05-12T19:49:46.367Z,98550.53
2018-05-12T19:52:14.189Z,98551.48
2018-05-12T19:54:41.914Z,98550.09
2018-05-12T19:57:09.567Z,98545.45
2018-05-12T19:59:37.209Z,98545.19
2018-05-12T20:02:04.915Z,98547.72
2018-05-12T20:04:32.621Z,98548.83
2018-05-12T20:07:00.563Z,98545.52
2018-05-12T20:09:28.379Z,98541.85
2018-05-12T20:11:56.188Z,98547.42
2018-05-12T20:14:23.909Z,98555.20
2018-05-12T20:16:51.719Z,98554.68
2018-05-12T20:19:19.342Z,98554.89
2018-05-12T20:21:47.028Z,98560.32
2018-05-12T20:24:14.945Z,98563.36
2018-05-12T20:26:43.770Z,98572.04
2018-05-12T20:29:11.582Z,98572.36
2018-05-12T20:31:39.488Z,98578.83
2018-05-12T20:34:07.090Z,98579.48
2018-05-12T20:36:34.707Z,98580.43
2018-05-12T20:39:02.429Z,98581.00
2018-05-12T20:41:30.570Z,98579.86
2018-05-12T20:43:58.186Z,98587.07
2018-05-12T20:46:26.046Z,98583.00
2018-05-12T20:48:53.626Z,98573.13
2018-05-12T20:51:21.195Z,98574.64
2018-05-12T20:53:48.921Z,98573.97
2018-05-12T20:56:16.492Z,98579.15
2018-05-12T20:58:44.148Z,98577.63
2018-05-12T21:01:11.853Z,98583.50
2018-05-12T21:03:39.446Z,98587.20
2018-05-12T21:06:07.071Z,98586.44
2018-05-12T21:08:34.787Z,98584.68
2018-05-12T21:11:02.367Z,98586.58
2018-05-12T21:13:29.971Z,98592.63
2018-05-12T21:15:57.660Z,98584.98
2018-05-12T21:18:26.152Z,98577.67
2018-05-12T21:20:53.788Z,98580.29
2018-05-12T21:23:21.424Z,98585.33
2018-05-12T21:25:48.998Z,98586.89
2018-05-12T21:28:16.573Z,98581.55
2018-05-12T21:30:44.264Z,98576.84
2018-05-12T21:33:11.904Z,98578.01
2018-05-12T21:35:39.545Z,98583.64
2018-05-12T21:38:07.233Z,98591.19
2018-05-12T21:40:34.808Z,98593.89
2018-05-12T21:43:02.380Z,98587.41
2018-05-12T21:45:30.010Z,98593.70
2018-05-12T21:47:57.649Z,98593.37
2018-05-12T21:50:25.584Z,98591.48
2018-05-12T21:52:53.364Z,98592.44
2018-05-12T21:55:20.947Z,98580.17
2018-05-12T21:57:48.589Z,98587.19
2018-05-12T22:00:16.292Z,98580.08
2018-05-12T22:02:43.869Z,98577.04
2018-05-12T22:05:11.463Z,98579.33
2018-05-12T22:07:39.196Z,98577.87
2018-05-12T22:10:06.775Z,98575.68
2018-05-12T22:12:34.381Z,98578.30
2018-05-12T22:15:02.109Z,98577.03
2018-05-12T22:17:29.762Z,98581.86
2018-05-12T22:19:57.339Z,98578.64
2018-05-12T22:22:25.303Z,98576.85
2018-05-12T22:24:52.948Z,98574.66
2018-05-12T22:27:20.602Z,98575.36
2018-05-12T22:29:48.243Z,98578.94
2018-05-12T22:32:15.887Z,98572.34
2018-05-12T22:34:43.452Z,98568.78
2018-05-12T22:37:11.078Z,98562.40
2018-05-12T22:39:38.681Z,98555.27
2018-05-12T22:42:06.268Z,98549.94
2018-05-12T22:44:33.992Z,98553.36
2018-05-12T22:47:01.602Z,98548.78
2018-05-12T22:49:29.246Z,98555.48
2018-05-12T22:51:56.866Z,98557.71
2018-05-12T22:54:24.443Z,98559.50
2018-05-12T22:56:52.015Z,98558.02
2018-05-12T22:59:19.641Z,98549.56
2018-05-12T23:01:47.305Z,98548.94
2018-05-12T23:04:14.889Z,98547.78
2018-05-12T23:06:42.615Z,98537.23
2018-05-12T23:09:10.241Z,98542.88
2018-05-12T23:11:37.840Z,98540.14
2018-05-12T23:14:05.542Z,98542.36
2018-05-12T23:16:33.180Z,98533.05
2018-05-12T23:19:00.810Z,98537.22
2018-05-12T23:21:28.424Z,98538.67
2018-05-12T23:23:56.057Z,98530.63
2018-05-12T23:26:23.650Z,98532.83
2018-05-12T23:28:51.403Z,98533.53
2018-05-12T23:31:18.977Z,98530.63
2018-05-12T23:33:46.560Z,98531.23
2018-05-12T23:36:14.176Z,98536.77
2018-05-12T23:38:41.768Z,98540.13
2018-05-12T23:41:09.407Z,98529.27
2018-05-12T23:43:37.029Z,98525.51
2018-05-12T23:46:04.685Z,98519.84
2018-05-12T23:48:32.263Z,98518.38
2018-05-12T23:51:00.037Z,98516.22
2018-05-12T23:53:27.621Z,98510.64
2018-05-12T23:55:55.281Z,98509.84
2018-05-12T23:58:23.178Z,98514.02
